sensor_id;sensor_type;location;lat;lon;timestamp;P1;durP1;ratioP1;P2;durP2;ratioP2
24547;SDS011;12713;51.624;4.924;2022-10-26T00:02:24;8.75;;;5.35;;
24547;SDS011;12713;51.624;4.924;2022-10-26T00:04:50;10.95;;;5.82;;
24547;SDS011;12713;51.624;4.924;2022-10-26T00:07:16;8.30;;;4.72;;
24547;SDS011;12713;51.624;4.924;2022-10-26T00:09:42;14.60;;;5.50;;
24547;SDS011;12713;51.624;4.924;2022-10-26T00:12:08;8.85;;;5.25;;
24547;SDS011;12713;51.624;4.924;2022-10-26T00:14:34;13.02;;;5.45;;
24547;SDS011;12713;51.624;4.924;2022-10-26T00:17:00;9.10;;;5.78;;
24547;SDS011;12713;51.624;4.924;2022-10-26T00:19:26;12.15;;;5.07;;
24547;SDS011;12713;51.624;4.924;2022-10-26T00:21:52;11.63;;;4.53;;
24547;SDS011;12713;51.624;4.924;2022-10-26T00:24:18;8.45;;;6.25;;
24547;SDS011;12713;51.624;4.924;2022-10-26T00:26:44;10.73;;;5.95;;
24547;SDS011;12713;51.624;4.924;2022-10-26T00:29:11;8.40;;;4.63;;
24547;SDS011;12713;51.624;4.924;2022-10-26T00:31:38;11.25;;;5.47;;
24547;SDS011;12713;51.624;4.924;2022-10-26T00:34:04;13.00;;;6.00;;
24547;SDS011;12713;51.624;4.924;2022-10-26T00:36:30;10.75;;;5.25;;
24547;SDS011;12713;51.624;4.924;2022-10-26T00:38:56;8.50;;;4.65;;
24547;SDS011;12713;51.624;4.924;2022-10-26T00:41:24;10.93;;;5.22;;
24547;SDS011;12713;51.624;4.924;2022-10-26T00:43:50;11.95;;;5.38;;
24547;SDS011;12713;51.624;4.924;2022-10-26T00:48:50;9.68;;;5.40;;
24547;SDS011;12713;51.624;4.924;2022-10-26T00:51:26;9.05;;;5.30;;
24547;SDS011;12713;51.624;4.924;2022-10-26T00:53:56;11.38;;;5.60;;
24547;SDS011;12713;51.624;4.924;2022-10-26T00:56:24;6.68;;;4.18;;
24547;SDS011;12713;51.624;4.924;2022-10-26T00:58:50;8.68;;;5.30;;
24547;SDS011;12713;51.624;4.924;2022-10-26T01:01:16;8.40;;;4.65;;
24547;SDS011;12713;51.624;4.924;2022-10-26T01:03:42;11.32;;;4.90;;
24547;SDS011;12713;51.624;4.924;2022-10-26T01:06:09;8.23;;;5.35;;
24547;SDS011;12713;51.624;4.924;2022-10-26T01:08:36;6.70;;;4.80;;
24547;SDS011;12713;51.624;4.924;2022-10-26T01:11:03;9.43;;;5.13;;
24547;SDS011;12713;51.624;4.924;2022-10-26T01:13:30;12.57;;;4.72;;
24547;SDS011;12713;51.624;4.924;2022-10-26T01:16:01;12.27;;;5.45;;
24547;SDS011;12713;51.624;4.924;2022-10-26T01:18:46;10.43;;;5.50;;
24547;SDS011;12713;51.624;4.924;2022-10-26T01:21:25;11.98;;;5.40;;
24547;SDS011;12713;51.624;4.924;2022-10-26T01:24:04;9.60;;;4.65;;
24547;SDS011;12713;51.624;4.924;2022-10-26T01:31:40;9.85;;;5.68;;
24547;SDS011;12713;51.624;4.924;2022-10-26T01:34:18;10.45;;;5.05;;
24547;SDS011;12713;51.624;4.924;2022-10-26T01:36:48;9.55;;;5.50;;
24547;SDS011;12713;51.624;4.924;2022-10-26T01:39:20;12.32;;;5.57;;
24547;SDS011;12713;51.624;4.924;2022-10-26T01:41:49;13.38;;;5.93;;
24547;SDS011;12713;51.624;4.924;2022-10-26T01:46:53;14.20;;;5.55;;
24547;SDS011;12713;51.624;4.924;2022-10-26T01:49:21;14.57;;;6.18;;
24547;SDS011;12713;51.624;4.924;2022-10-26T01:51:48;14.70;;;6.10;;
24547;SDS011;12713;51.624;4.924;2022-10-26T01:54:14;12.00;;;5.85;;
24547;SDS011;12713;51.624;4.924;2022-10-26T01:56:44;10.15;;;6.05;;
24547;SDS011;12713;51.624;4.924;2022-10-26T01:59:25;9.65;;;5.07;;
24547;SDS011;12713;51.624;4.924;2022-10-26T02:04:40;15.15;;;6.22;;
24547;SDS011;12713;51.624;4.924;2022-10-26T02:07:22;9.10;;;4.88;;
24547;SDS011;12713;51.624;4.924;2022-10-26T02:09:55;9.75;;;5.68;;
24547;SDS011;12713;51.624;4.924;2022-10-26T02:14:55;9.68;;;5.47;;
24547;SDS011;12713;51.624;4.924;2022-10-26T02:18:12;9.13;;;4.95;;
24547;SDS011;12713;51.624;4.924;2022-10-26T02:20:10;12.25;;;5.90;;
24547;SDS011;12713;51.624;4.924;2022-10-26T02:22:39;11.82;;;5.32;;
24547;SDS011;12713;51.624;4.924;2022-10-26T02:25:07;13.68;;;4.95;;
24547;SDS011;12713;51.624;4.924;2022-10-26T02:27:34;12.90;;;5.03;;
24547;SDS011;12713;51.624;4.924;2022-10-26T02:30:01;13.30;;;5.07;;
24547;SDS011;12713;51.624;4.924;2022-10-26T02:32:31;9.85;;;5.00;;
24547;SDS011;12713;51.624;4.924;2022-10-26T02:34:58;12.57;;;5.05;;
24547;SDS011;12713;51.624;4.924;2022-10-26T02:37:25;7.80;;;4.75;;
24547;SDS011;12713;51.624;4.924;2022-10-26T02:39:52;7.82;;;5.05;;
24547;SDS011;12713;51.624;4.924;2022-10-26T02:42:20;8.98;;;4.93;;
24547;SDS011;12713;51.624;4.924;2022-10-26T02:44:48;11.60;;;5.25;;
24547;SDS011;12713;51.624;4.924;2022-10-26T02:47:17;13.35;;;4.22;;
24547;SDS011;12713;51.624;4.924;2022-10-26T02:49:44;12.10;;;4.60;;
24547;SDS011;12713;51.624;4.924;2022-10-26T02:52:14;7.75;;;4.32;;
24547;SDS011;12713;51.624;4.924;2022-10-26T02:57:15;11.75;;;4.68;;
24547;SDS011;12713;51.624;4.924;2022-10-26T02:59:42;8.80;;;4.88;;
24547;SDS011;12713;51.624;4.924;2022-10-26T03:02:11;17.65;;;5.45;;
24547;SDS011;12713;51.624;4.924;2022-10-26T03:04:38;11.48;;;4.30;;
24547;SDS011;12713;51.624;4.924;2022-10-26T03:07:04;8.18;;;4.28;;
24547;SDS011;12713;51.624;4.924;2022-10-26T03:09:30;10.60;;;4.68;;
24547;SDS011;12713;51.624;4.924;2022-10-26T03:11:56;10.80;;;3.95;;
24547;SDS011;12713;51.624;4.924;2022-10-26T03:14:22;9.38;;;3.85;;
24547;SDS011;12713;51.624;4.924;2022-10-26T03:16:48;8.77;;;4.03;;
24547;SDS011;12713;51.624;4.924;2022-10-26T03:19:14;8.85;;;4.20;;
24547;SDS011;12713;51.624;4.924;2022-10-26T03:21:40;11.05;;;4.32;;
24547;SDS011;12713;51.624;4.924;2022-10-26T03:24:07;9.50;;;4.47;;
24547;SDS011;12713;51.624;4.924;2022-10-26T03:26:33;7.80;;;3.90;;
24547;SDS011;12713;51.624;4.924;2022-10-26T03:28:59;13.02;;;4.78;;
24547;SDS011;12713;51.624;4.924;2022-10-26T03:31:25;11.43;;;4.90;;
24547;SDS011;12713;51.624;4.924;2022-10-26T03:33:51;8.27;;;4.45;;
24547;SDS011;12713;51.624;4.924;2022-10-26T03:36:17;9.63;;;4.47;;
24547;SDS011;12713;51.624;4.924;2022-10-26T03:38:43;11.40;;;4.60;;
24547;SDS011;12713;51.624;4.924;2022-10-26T03:41:09;10.75;;;4.55;;
24547;SDS011;12713;51.624;4.924;2022-10-26T03:43:35;10.85;;;3.95;;
24547;SDS011;12713;51.624;4.924;2022-10-26T03:46:01;13.98;;;5.00;;
24547;SDS011;12713;51.624;4.924;2022-10-26T03:48:27;10.90;;;4.05;;
24547;SDS011;12713;51.624;4.924;2022-10-26T03:50:56;9.10;;;4.68;;
24547;SDS011;12713;51.624;4.924;2022-10-26T03:53:23;7.88;;;4.75;;
24547;SDS011;12713;51.624;4.924;2022-10-26T03:55:49;10.20;;;4.45;;
24547;SDS011;12713;51.624;4.924;2022-10-26T03:58:15;7.68;;;4.43;;
24547;SDS011;12713;51.624;4.924;2022-10-26T04:00:41;11.60;;;4.63;;
24547;SDS011;12713;51.624;4.924;2022-10-26T04:03:07;12.48;;;5.10;;
24547;SDS011;12713;51.624;4.924;2022-10-26T04:05:33;10.88;;;5.18;;
24547;SDS011;12713;51.624;4.924;2022-10-26T04:07:59;10.18;;;4.63;;
24547;SDS011;12713;51.624;4.924;2022-10-26T04:10:29;15.77;;;5.20;;
24547;SDS011;12713;51.624;4.924;2022-10-26T04:12:55;10.50;;;4.95;;
24547;SDS011;12713;51.624;4.924;2022-10-26T04:15:22;13.57;;;5.10;;
24547;SDS011;12713;51.624;4.924;2022-10-26T04:17:54;10.85;;;5.28;;
24547;SDS011;12713;51.624;4.924;2022-10-26T04:20:20;11.13;;;4.90;;
24547;SDS011;12713;51.624;4.924;2022-10-26T04:22:46;9.38;;;4.88;;
24547;SDS011;12713;51.624;4.924;2022-10-26T04:25:12;13.40;;;6.05;;
24547;SDS011;12713;51.624;4.924;2022-10-26T04:27:38;11.18;;;5.55;;
24547;SDS011;12713;51.624;4.924;2022-10-26T04:30:04;13.02;;;6.00;;
24547;SDS011;12713;51.624;4.924;2022-10-26T04:32:33;14.65;;;5.75;;
24547;SDS011;12713;51.624;4.924;2022-10-26T04:34:59;10.70;;;5.88;;
24547;SDS011;12713;51.624;4.924;2022-10-26T04:37:25;9.25;;;4.72;;
24547;SDS011;12713;51.624;4.924;2022-10-26T04:39:51;11.25;;;4.63;;
24547;SDS011;12713;51.624;4.924;2022-10-26T04:42:17;10.15;;;5.47;;
24547;SDS011;12713;51.624;4.924;2022-10-26T04:44:43;10.48;;;5.53;;
24547;SDS011;12713;51.624;4.924;2022-10-26T04:47:09;8.50;;;5.18;;
24547;SDS011;12713;51.624;4.924;2022-10-26T04:49:35;9.82;;;5.32;;
24547;SDS011;12713;51.624;4.924;2022-10-26T04:52:01;11.70;;;5.22;;
24547;SDS011;12713;51.624;4.924;2022-10-26T04:54:27;10.07;;;5.18;;
24547;SDS011;12713;51.624;4.924;2022-10-26T04:56:53;7.40;;;4.65;;
24547;SDS011;12713;51.624;4.924;2022-10-26T04:59:19;8.43;;;5.43;;
24547;SDS011;12713;51.624;4.924;2022-10-26T05:01:45;9.68;;;4.63;;
24547;SDS011;12713;51.624;4.924;2022-10-26T05:04:11;14.73;;;5.78;;
24547;SDS011;12713;51.624;4.924;2022-10-26T05:06:37;10.07;;;5.45;;
24547;SDS011;12713;51.624;4.924;2022-10-26T05:09:03;17.02;;;5.88;;
24547;SDS011;12713;51.624;4.924;2022-10-26T05:11:29;12.68;;;6.20;;
24547;SDS011;12713;51.624;4.924;2022-10-26T05:13:55;12.07;;;6.05;;
24547;SDS011;12713;51.624;4.924;2022-10-26T05:16:21;14.15;;;7.25;;
24547;SDS011;12713;51.624;4.924;2022-10-26T05:18:47;10.38;;;7.85;;
24547;SDS011;12713;51.624;4.924;2022-10-26T05:21:14;18.67;;;9.57;;
24547;SDS011;12713;51.624;4.924;2022-10-26T05:23:44;18.30;;;9.48;;
24547;SDS011;12713;51.624;4.924;2022-10-26T05:26:12;13.40;;;9.40;;
24547;SDS011;12713;51.624;4.924;2022-10-26T05:28:38;10.40;;;8.40;;
24547;SDS011;12713;51.624;4.924;2022-10-26T05:31:04;11.77;;;7.55;;
24547;SDS011;12713;51.624;4.924;2022-10-26T05:33:30;13.25;;;7.18;;
24547;SDS011;12713;51.624;4.924;2022-10-26T05:35:56;11.00;;;6.65;;
24547;SDS011;12713;51.624;4.924;2022-10-26T05:38:22;14.70;;;7.05;;
24547;SDS011;12713;51.624;4.924;2022-10-26T05:40:49;11.50;;;5.97;;
24547;SDS011;12713;51.624;4.924;2022-10-26T05:43:16;9.55;;;6.05;;
24547;SDS011;12713;51.624;4.924;2022-10-26T05:45:42;8.60;;;5.40;;
24547;SDS011;12713;51.624;4.924;2022-10-26T05:48:08;10.50;;;6.20;;
24547;SDS011;12713;51.624;4.924;2022-10-26T05:50:34;15.32;;;6.18;;
24547;SDS011;12713;51.624;4.924;2022-10-26T05:53:00;16.30;;;6.18;;
24547;SDS011;12713;51.624;4.924;2022-10-26T05:55:26;11.75;;;6.80;;
24547;SDS011;12713;51.624;4.924;2022-10-26T05:57:52;15.60;;;7.28;;
24547;SDS011;12713;51.624;4.924;2022-10-26T06:00:19;10.30;;;7.07;;
24547;SDS011;12713;51.624;4.924;2022-10-26T06:05:21;29.25;;;7.72;;
24547;SDS011;12713;51.624;4.924;2022-10-26T06:07:48;18.33;;;7.68;;
24547;SDS011;12713;51.624;4.924;2022-10-26T06:10:15;10.70;;;7.55;;
24547;SDS011;12713;51.624;4.924;2022-10-26T06:12:41;12.77;;;7.82;;
24547;SDS011;12713;51.624;4.924;2022-10-26T06:15:10;13.77;;;8.38;;
24547;SDS011;12713;51.624;4.924;2022-10-26T06:28:15;8.65;;;5.53;;
24547;SDS011;12713;51.624;4.924;2022-10-26T06:30:43;10.27;;;5.13;;
24547;SDS011;12713;51.624;4.924;2022-10-26T06:33:09;16.15;;;5.80;;
24547;SDS011;12713;51.624;4.924;2022-10-26T06:38:09;9.95;;;5.57;;
24547;SDS011;12713;51.624;4.924;2022-10-26T06:40:37;14.02;;;5.32;;
24547;SDS011;12713;51.624;4.924;2022-10-26T06:43:08;16.80;;;5.47;;
24547;SDS011;12713;51.624;4.924;2022-10-26T06:45:37;17.23;;;5.03;;
24547;SDS011;12713;51.624;4.924;2022-10-26T06:48:04;9.77;;;4.72;;
24547;SDS011;12713;51.624;4.924;2022-10-26T06:50:51;12.77;;;5.25;;
24547;SDS011;12713;51.624;4.924;2022-10-26T06:53:20;10.20;;;5.70;;
24547;SDS011;12713;51.624;4.924;2022-10-26T06:55:49;11.55;;;5.90;;
24547;SDS011;12713;51.624;4.924;2022-10-26T06:58:16;13.10;;;6.70;;
24547;SDS011;12713;51.624;4.924;2022-10-26T07:00:43;13.35;;;7.75;;
24547;SDS011;12713;51.624;4.924;2022-10-26T07:03:10;10.27;;;8.27;;
24547;SDS011;12713;51.624;4.924;2022-10-26T07:05:36;13.32;;;8.95;;
24547;SDS011;12713;51.624;4.924;2022-10-26T07:08:02;13.98;;;8.15;;
24547;SDS011;12713;51.624;4.924;2022-10-26T07:10:29;15.10;;;6.63;;
24547;SDS011;12713;51.624;4.924;2022-10-26T07:12:56;13.00;;;6.60;;
24547;SDS011;12713;51.624;4.924;2022-10-26T07:15:22;14.07;;;6.20;;
24547;SDS011;12713;51.624;4.924;2022-10-26T07:17:48;13.93;;;6.35;;
24547;SDS011;12713;51.624;4.924;2022-10-26T07:20:15;9.43;;;6.28;;
24547;SDS011;12713;51.624;4.924;2022-10-26T07:22:50;8.65;;;6.13;;
24547;SDS011;12713;51.624;4.924;2022-10-26T07:25:33;15.82;;;6.13;;
24547;SDS011;12713;51.624;4.924;2022-10-26T07:28:03;11.88;;;5.80;;
24547;SDS011;12713;51.624;4.924;2022-10-26T07:30:29;10.25;;;4.55;;
24547;SDS011;12713;51.624;4.924;2022-10-26T07:33:02;12.32;;;4.88;;
24547;SDS011;12713;51.624;4.924;2022-10-26T07:35:29;12.15;;;5.60;;
24547;SDS011;12713;51.624;4.924;2022-10-26T07:37:58;9.95;;;5.00;;
24547;SDS011;12713;51.624;4.924;2022-10-26T07:40:34;13.15;;;5.22;;
24547;SDS011;12713;51.624;4.924;2022-10-26T07:43:01;11.65;;;6.10;;
24547;SDS011;12713;51.624;4.924;2022-10-26T07:45:43;8.32;;;5.40;;
24547;SDS011;12713;51.624;4.924;2022-10-26T07:51:32;8.05;;;5.65;;
24547;SDS011;12713;51.624;4.924;2022-10-26T07:54:00;10.00;;;5.18;;
24547;SDS011;12713;51.624;4.924;2022-10-26T07:56:29;11.15;;;5.93;;
24547;SDS011;12713;51.624;4.924;2022-10-26T07:58:55;11.70;;;6.10;;
24547;SDS011;12713;51.624;4.924;2022-10-26T08:01:22;13.15;;;6.13;;
24547;SDS011;12713;51.624;4.924;2022-10-26T08:03:52;20.17;;;9.38;;
24547;SDS011;12713;51.624;4.924;2022-10-26T08:06:18;19.20;;;9.65;;
24547;SDS011;12713;51.624;4.924;2022-10-26T08:08:44;9.40;;;6.25;;
24547;SDS011;12713;51.624;4.924;2022-10-26T08:17:18;14.35;;;5.13;;
24547;SDS011;12713;51.624;4.924;2022-10-26T08:19:47;7.95;;;4.18;;
24547;SDS011;12713;51.624;4.924;2022-10-26T08:22:13;9.30;;;5.22;;
24547;SDS011;12713;51.624;4.924;2022-10-26T08:24:39;8.50;;;4.00;;
24547;SDS011;12713;51.624;4.924;2022-10-26T08:27:08;9.32;;;4.20;;
24547;SDS011;12713;51.624;4.924;2022-10-26T08:29:34;11.25;;;4.13;;
24547;SDS011;12713;51.624;4.924;2022-10-26T08:32:02;10.52;;;4.32;;
24547;SDS011;12713;51.624;4.924;2022-10-26T08:34:28;10.90;;;6.00;;
24547;SDS011;12713;51.624;4.924;2022-10-26T08:37:02;14.73;;;6.13;;
24547;SDS011;12713;51.624;4.924;2022-10-26T08:39:28;14.77;;;5.55;;
24547;SDS011;12713;51.624;4.924;2022-10-26T08:42:06;13.10;;;4.57;;
24547;SDS011;12713;51.624;4.924;2022-10-26T08:44:41;10.80;;;3.38;;
24547;SDS011;12713;51.624;4.924;2022-10-26T08:49:45;9.43;;;3.50;;
24547;SDS011;12713;51.624;4.924;2022-10-26T08:52:14;7.43;;;3.25;;
24547;SDS011;12713;51.624;4.924;2022-10-26T08:55:00;6.07;;;3.03;;
24547;SDS011;12713;51.624;4.924;2022-10-26T08:57:37;7.03;;;2.88;;
24547;SDS011;12713;51.624;4.924;2022-10-26T09:00:06;6.05;;;2.83;;
24547;SDS011;12713;51.624;4.924;2022-10-26T09:02:35;7.63;;;3.13;;
24547;SDS011;12713;51.624;4.924;2022-10-26T09:05:07;8.07;;;3.05;;
24547;SDS011;12713;51.624;4.924;2022-10-26T09:07:45;5.97;;;3.00;;
24547;SDS011;12713;51.624;4.924;2022-10-26T09:10:23;10.30;;;2.75;;
24547;SDS011;12713;51.624;4.924;2022-10-26T09:15:47;13.80;;;3.33;;
24547;SDS011;12713;51.624;4.924;2022-10-26T09:26:36;10.00;;;2.80;;
24547;SDS011;12713;51.624;4.924;2022-10-26T09:29:15;8.30;;;3.22;;
24547;SDS011;12713;51.624;4.924;2022-10-26T09:31:42;5.22;;;2.70;;
24547;SDS011;12713;51.624;4.924;2022-10-26T09:34:32;17.85;;;3.65;;
24547;SDS011;12713;51.624;4.924;2022-10-26T09:36:55;10.55;;;3.20;;
24547;SDS011;12713;51.624;4.924;2022-10-26T09:41:58;4.88;;;2.58;;
24547;SDS011;12713;51.624;4.924;2022-10-26T09:44:35;9.65;;;2.70;;
24547;SDS011;12713;51.624;4.924;2022-10-26T09:49:43;7.78;;;2.88;;
24547;SDS011;12713;51.624;4.924;2022-10-26T09:52:20;11.23;;;2.92;;
24547;SDS011;12713;51.624;4.924;2022-10-26T09:54:46;8.75;;;2.67;;
24547;SDS011;12713;51.624;4.924;2022-10-26T09:57:13;10.27;;;2.88;;
24547;SDS011;12713;51.624;4.924;2022-10-26T09:59:40;6.85;;;3.15;;
24547;SDS011;12713;51.624;4.924;2022-10-26T10:04:50;17.30;;;3.30;;
24547;SDS011;12713;51.624;4.924;2022-10-26T10:07:17;10.40;;;2.65;;
24547;SDS011;12713;51.624;4.924;2022-10-26T10:09:43;8.65;;;2.97;;
24547;SDS011;12713;51.624;4.924;2022-10-26T10:12:17;6.30;;;2.90;;
24547;SDS011;12713;51.624;4.924;2022-10-26T10:14:57;11.32;;;3.03;;
24547;SDS011;12713;51.624;4.924;2022-10-26T10:17:24;6.30;;;3.10;;
24547;SDS011;12713;51.624;4.924;2022-10-26T10:19:50;10.32;;;3.20;;
24547;SDS011;12713;51.624;4.924;2022-10-26T10:22:20;5.50;;;2.88;;
24547;SDS011;12713;51.624;4.924;2022-10-26T10:27:24;8.15;;;3.38;;
24547;SDS011;12713;51.624;4.924;2022-10-26T10:29:51;10.05;;;3.30;;
24547;SDS011;12713;51.624;4.924;2022-10-26T10:32:21;8.10;;;3.33;;
24547;SDS011;12713;51.624;4.924;2022-10-26T10:34:48;5.15;;;3.33;;
24547;SDS011;12713;51.624;4.924;2022-10-26T10:37:36;8.40;;;3.80;;
24547;SDS011;12713;51.624;4.924;2022-10-26T10:40:13;8.43;;;3.80;;
24547;SDS011;12713;51.624;4.924;2022-10-26T10:42:40;6.57;;;3.22;;
24547;SDS011;12713;51.624;4.924;2022-10-26T10:45:20;6.80;;;3.47;;
24547;SDS011;12713;51.624;4.924;2022-10-26T10:50:37;9.10;;;3.30;;
24547;SDS011;12713;51.624;4.924;2022-10-26T10:53:17;9.23;;;3.78;;
24547;SDS011;12713;51.624;4.924;2022-10-26T10:58:39;11.85;;;5.30;;
24547;SDS011;12713;51.624;4.924;2022-10-26T11:01:11;10.57;;;4.70;;
24547;SDS011;12713;51.624;4.924;2022-10-26T11:08:42;7.82;;;4.80;;
24547;SDS011;12713;51.624;4.924;2022-10-26T11:11:10;6.78;;;3.80;;
24547;SDS011;12713;51.624;4.924;2022-10-26T11:14:01;5.90;;;3.83;;
24547;SDS011;12713;51.624;4.924;2022-10-26T11:19:03;7.28;;;3.25;;
24547;SDS011;12713;51.624;4.924;2022-10-26T11:21:31;7.75;;;3.70;;
24547;SDS011;12713;51.624;4.924;2022-10-26T11:24:12;6.50;;;3.55;;
24547;SDS011;12713;51.624;4.924;2022-10-26T11:26:41;7.07;;;3.42;;
24547;SDS011;12713;51.624;4.924;2022-10-26T11:29:35;6.90;;;3.45;;
24547;SDS011;12713;51.624;4.924;2022-10-26T11:32:09;6.00;;;3.60;;
24547;SDS011;12713;51.624;4.924;2022-10-26T11:34:38;5.70;;;3.35;;
24547;SDS011;12713;51.624;4.924;2022-10-26T11:40:15;6.53;;;2.90;;
24547;SDS011;12713;51.624;4.924;2022-10-26T11:42:46;8.52;;;3.58;;
24547;SDS011;12713;51.624;4.924;2022-10-26T11:45:21;7.68;;;2.55;;
24547;SDS011;12713;51.624;4.924;2022-10-26T11:50:37;5.70;;;2.95;;
24547;SDS011;12713;51.624;4.924;2022-10-26T11:53:11;7.40;;;2.47;;
24547;SDS011;12713;51.624;4.924;2022-10-26T11:55:39;6.38;;;2.60;;
24547;SDS011;12713;51.624;4.924;2022-10-26T11:58:10;9.27;;;2.70;;
24547;SDS011;12713;51.624;4.924;2022-10-26T12:00:47;4.95;;;2.70;;
24547;SDS011;12713;51.624;4.924;2022-10-26T12:03:16;11.75;;;2.83;;
24547;SDS011;12713;51.624;4.924;2022-10-26T12:05:49;8.95;;;2.90;;
24547;SDS011;12713;51.624;4.924;2022-10-26T12:08:29;11.88;;;2.72;;
24547;SDS011;12713;51.624;4.924;2022-10-26T12:13:40;7.15;;;1.92;;
24547;SDS011;12713;51.624;4.924;2022-10-26T12:16:12;5.65;;;2.05;;
24547;SDS011;12713;51.624;4.924;2022-10-26T12:21:10;8.73;;;2.50;;
24547;SDS011;12713;51.624;4.924;2022-10-26T12:23:37;7.97;;;1.90;;
24547;SDS011;12713;51.624;4.924;2022-10-26T12:29:34;8.15;;;2.78;;
24547;SDS011;12713;51.624;4.924;2022-10-26T12:34:04;8.73;;;2.25;;
24547;SDS011;12713;51.624;4.924;2022-10-26T12:52:32;6.45;;;1.77;;
24547;SDS011;12713;51.624;4.924;2022-10-26T12:55:06;5.85;;;1.70;;
24547;SDS011;12713;51.624;4.924;2022-10-26T13:00:04;6.35;;;1.85;;
24547;SDS011;12713;51.624;4.924;2022-10-26T13:08:04;6.95;;;2.00;;
24547;SDS011;12713;51.624;4.924;2022-10-26T13:10:31;8.70;;;2.13;;
24547;SDS011;12713;51.624;4.924;2022-10-26T13:12:58;5.47;;;1.88;;
24547;SDS011;12713;51.624;4.924;2022-10-26T13:15:28;7.05;;;2.03;;
24547;SDS011;12713;51.624;4.924;2022-10-26T13:18:08;3.85;;;1.65;;
24547;SDS011;12713;51.624;4.924;2022-10-26T13:20:35;7.30;;;1.40;;
24547;SDS011;12713;51.624;4.924;2022-10-26T13:23:02;9.68;;;2.25;;
24547;SDS011;12713;51.624;4.924;2022-10-26T13:25:39;4.47;;;1.85;;
24547;SDS011;12713;51.624;4.924;2022-10-26T13:28:06;6.43;;;1.80;;
24547;SDS011;12713;51.624;4.924;2022-10-26T13:30:51;6.15;;;1.50;;
24547;SDS011;12713;51.624;4.924;2022-10-26T13:33:21;4.35;;;1.55;;
24547;SDS011;12713;51.624;4.924;2022-10-26T13:35:49;6.75;;;1.83;;
24547;SDS011;12713;51.624;4.924;2022-10-26T13:38:17;7.15;;;1.92;;
24547;SDS011;12713;51.624;4.924;2022-10-26T13:40:44;8.52;;;2.17;;
24547;SDS011;12713;51.624;4.924;2022-10-26T13:43:14;2.83;;;1.42;;
24547;SDS011;12713;51.624;4.924;2022-10-26T13:48:39;8.85;;;2.00;;
24547;SDS011;12713;51.624;4.924;2022-10-26T13:51:25;6.03;;;1.80;;
24547;SDS011;12713;51.624;4.924;2022-10-26T13:54:13;7.03;;;1.85;;
24547;SDS011;12713;51.624;4.924;2022-10-26T13:56:43;6.00;;;1.73;;
24547;SDS011;12713;51.624;4.924;2022-10-26T13:59:13;5.40;;;1.60;;
24547;SDS011;12713;51.624;4.924;2022-10-26T14:01:40;5.70;;;1.50;;
24547;SDS011;12713;51.624;4.924;2022-10-26T14:06:51;6.95;;;2.25;;
24547;SDS011;12713;51.624;4.924;2022-10-26T14:09:18;4.78;;;1.75;;
24547;SDS011;12713;51.624;4.924;2022-10-26T14:11:48;5.82;;;1.75;;
24547;SDS011;12713;51.624;4.924;2022-10-26T14:14:23;6.07;;;1.55;;
24547;SDS011;12713;51.624;4.924;2022-10-26T14:16:50;6.13;;;1.60;;
24547;SDS011;12713;51.624;4.924;2022-10-26T14:19:21;7.00;;;1.50;;
24547;SDS011;12713;51.624;4.924;2022-10-26T14:21:49;10.43;;;1.88;;
24547;SDS011;12713;51.624;4.924;2022-10-26T14:24:20;5.60;;;1.60;;
24547;SDS011;12713;51.624;4.924;2022-10-26T14:26:46;7.82;;;2.00;;
24547;SDS011;12713;51.624;4.924;2022-10-26T14:29:19;8.63;;;1.52;;
24547;SDS011;12713;51.624;4.924;2022-10-26T14:31:46;4.75;;;1.80;;
24547;SDS011;12713;51.624;4.924;2022-10-26T14:34:13;6.95;;;2.03;;
24547;SDS011;12713;51.624;4.924;2022-10-26T14:39:50;8.23;;;1.75;;
24547;SDS011;12713;51.624;4.924;2022-10-26T14:41:57;6.75;;;1.67;;
24547;SDS011;12713;51.624;4.924;2022-10-26T14:44:24;6.38;;;1.38;;
24547;SDS011;12713;51.624;4.924;2022-10-26T14:46:51;8.82;;;1.98;;
24547;SDS011;12713;51.624;4.924;2022-10-26T14:49:19;8.73;;;1.95;;
24547;SDS011;12713;51.624;4.924;2022-10-26T14:51:45;8.52;;;1.65;;
24547;SDS011;12713;51.624;4.924;2022-10-26T14:54:21;5.32;;;1.65;;
24547;SDS011;12713;51.624;4.924;2022-10-26T14:56:48;4.90;;;1.65;;
24547;SDS011;12713;51.624;4.924;2022-10-26T14:59:21;6.97;;;1.77;;
24547;SDS011;12713;51.624;4.924;2022-10-26T15:01:52;8.45;;;1.63;;
24547;SDS011;12713;51.624;4.924;2022-10-26T15:04:29;13.30;;;2.70;;
24547;SDS011;12713;51.624;4.924;2022-10-26T15:09:43;6.13;;;2.00;;
24547;SDS011;12713;51.624;4.924;2022-10-26T15:12:20;5.10;;;1.50;;
24547;SDS011;12713;51.624;4.924;2022-10-26T15:14:47;7.20;;;1.90;;
24547;SDS011;12713;51.624;4.924;2022-10-26T15:17:25;8.85;;;1.70;;
24547;SDS011;12713;51.624;4.924;2022-10-26T15:19:55;11.98;;;2.45;;
24547;SDS011;12713;51.624;4.924;2022-10-26T15:22:25;8.68;;;2.25;;
24547;SDS011;12713;51.624;4.924;2022-10-26T15:24:55;22.65;;;2.88;;
24547;SDS011;12713;51.624;4.924;2022-10-26T15:27:24;9.45;;;3.42;;
24547;SDS011;12713;51.624;4.924;2022-10-26T15:29:51;5.13;;;1.83;;
24547;SDS011;12713;51.624;4.924;2022-10-26T15:32:32;6.40;;;1.80;;
24547;SDS011;12713;51.624;4.924;2022-10-26T15:37:40;6.13;;;2.50;;
24547;SDS011;12713;51.624;4.924;2022-10-26T15:40:08;5.80;;;1.48;;
24547;SDS011;12713;51.624;4.924;2022-10-26T15:42:35;7.43;;;1.75;;
24547;SDS011;12713;51.624;4.924;2022-10-26T15:45:02;9.93;;;1.77;;
24547;SDS011;12713;51.624;4.924;2022-10-26T15:47:30;4.90;;;1.85;;
24547;SDS011;12713;51.624;4.924;2022-10-26T15:49:57;13.43;;;2.30;;
24547;SDS011;12713;51.624;4.924;2022-10-26T15:52:23;8.45;;;1.92;;
24547;SDS011;12713;51.624;4.924;2022-10-26T15:54:49;8.40;;;1.88;;
24547;SDS011;12713;51.624;4.924;2022-10-26T15:57:15;6.35;;;1.90;;
24547;SDS011;12713;51.624;4.924;2022-10-26T15:59:41;10.02;;;2.05;;
24547;SDS011;12713;51.624;4.924;2022-10-26T16:02:14;7.18;;;2.17;;
24547;SDS011;12713;51.624;4.924;2022-10-26T16:04:40;12.95;;;2.00;;
24547;SDS011;12713;51.624;4.924;2022-10-26T16:07:12;9.02;;;2.03;;
24547;SDS011;12713;51.624;4.924;2022-10-26T16:09:39;7.95;;;2.03;;
24547;SDS011;12713;51.624;4.924;2022-10-26T16:12:07;5.45;;;1.80;;
24547;SDS011;12713;51.624;4.924;2022-10-26T16:14:33;9.48;;;2.50;;
24547;SDS011;12713;51.624;4.924;2022-10-26T16:16:59;7.13;;;1.70;;
24547;SDS011;12713;51.624;4.924;2022-10-26T16:19:25;5.43;;;1.67;;
24547;SDS011;12713;51.624;4.924;2022-10-26T16:21:51;4.80;;;1.80;;
24547;SDS011;12713;51.624;4.924;2022-10-26T16:24:17;5.55;;;1.77;;
24547;SDS011;12713;51.624;4.924;2022-10-26T16:26:43;8.70;;;2.15;;
24547;SDS011;12713;51.624;4.924;2022-10-26T16:29:09;8.18;;;2.10;;
24547;SDS011;12713;51.624;4.924;2022-10-26T16:31:35;8.75;;;2.40;;
24547;SDS011;12713;51.624;4.924;2022-10-26T16:34:01;11.98;;;2.40;;
24547;SDS011;12713;51.624;4.924;2022-10-26T16:36:27;4.00;;;1.95;;
24547;SDS011;12713;51.624;4.924;2022-10-26T16:38:53;5.28;;;2.10;;
24547;SDS011;12713;51.624;4.924;2022-10-26T16:41:19;9.55;;;2.28;;
24547;SDS011;12713;51.624;4.924;2022-10-26T16:43:45;6.32;;;1.90;;
24547;SDS011;12713;51.624;4.924;2022-10-26T16:46:12;8.90;;;1.92;;
24547;SDS011;12713;51.624;4.924;2022-10-26T16:48:39;5.97;;;2.13;;
24547;SDS011;12713;51.624;4.924;2022-10-26T16:51:10;7.03;;;2.17;;
24547;SDS011;12713;51.624;4.924;2022-10-26T16:53:36;7.78;;;1.85;;
24547;SDS011;12713;51.624;4.924;2022-10-26T16:56:03;6.10;;;2.17;;
24547;SDS011;12713;51.624;4.924;2022-10-26T16:58:29;8.20;;;1.95;;
24547;SDS011;12713;51.624;4.924;2022-10-26T17:00:55;10.80;;;4.20;;
24547;SDS011;12713;51.624;4.924;2022-10-26T17:03:21;14.48;;;3.90;;
24547;SDS011;12713;51.624;4.924;2022-10-26T17:05:53;14.38;;;4.25;;
24547;SDS011;12713;51.624;4.924;2022-10-26T17:08:19;22.55;;;5.18;;